Time;durP1;ratioP1;P1;durP2;ratioP2;P2;SDS_P1;SDS_P2;PMS_P1;PMS_P2;Temp;Humidity;BMP_temperature;BMP_pressure;BME280_temperature;BME280_humidity;BME280_pressure;Samples;Min_cycle;Max_cycle;Signal;HPM_P1;HPM_P2
2024/02/15 00:00:45;;;;;;;1.57;1.00;;;12.10;98.20;;;;;;6231361;23;20518;-89
2024/02/15 00:03:31;;;;;;;1.53;1.07;;;12.00;98.20;;;;;;6159212;23;20467;-88
2024/02/15 00:08:54;;;;;;;1.60;1.10;;;12.10;98.20;;;;;;6176664;23;20431;-88
2024/02/15 00:14:24;;;;;;;1.57;1.03;;;12.10;98.20;;;;;;6183242;23;20420;-89
2024/02/15 00:20:17;;;;;;;1.60;1.00;;;12.20;98.20;;;;;;6176044;23;20515;-86
2024/02/15 00:22:55;;;;;;;;;;;;;;;;;;;;;
2024/02/15 00:25:30;;;;;;;1.60;1.10;;;12.30;98.20;;;;;;6190299;23;20395;-88
2024/02/15 00:34:47;;;;;;;1.60;1.10;;;12.30;98.20;;;;;;6172397;23;20778;-87
2024/02/15 00:37:51;;;;;;;1.57;1.00;;;12.30;98.20;;;;;;6168562;23;20451;-87
2024/02/15 00:43:51;;;;;;;1.57;1.07;;;12.40;98.20;;;;;;6122727;23;20458;-87
2024/02/15 01:10:26;;;;;;;1.60;1.10;;;12.40;98.20;;;;;;6005005;23;20420;-86
2024/02/15 03:33:05;;;;;;;1.60;1.10;;;12.40;98.20;;;;;;6137290;23;20438;-88
2024/02/15 03:41:41;;;;;;;1.57;1.00;;;12.50;98.20;;;;;;6198156;22;20549;-81
2024/02/15 03:44:10;;;;;;;1.57;1.00;;;12.50;98.20;;;;;;6205527;23;20438;-80
2024/02/15 03:46:42;;;;;;;1.53;1.00;;;12.60;98.20;;;;;;6196285;23;20796;-80
2024/02/15 03:52:05;;;;;;;1.60;1.10;;;12.60;98.20;;;;;;6151647;23;20535;-82
2024/02/15 03:54:32;;;;;;;1.53;1.00;;;12.60;98.20;;;;;;6190523;23;20416;-82
2024/02/15 03:57:03;;;;;;;1.60;1.10;;;12.60;98.20;;;;;;6166455;23;20487;-82
2024/02/15 03:59:35;;;;;;;1.50;1.00;;;12.60;98.20;;;;;;6192016;23;20397;-83
2024/02/15 04:02:08;;;;;;;1.60;1.00;;;12.60;98.20;;;;;;6171606;23;20443;-82
2024/02/15 04:04:36;;;;;;;1.53;1.00;;;12.60;98.20;;;;;;6181710;23;21000;-81
2024/02/15 04:07:03;;;;;;;1.60;1.10;;;12.50;98.20;;;;;;6172656;23;20448;-82
2024/02/15 04:09:30;;;;;;;1.60;1.07;;;12.50;98.20;;;;;;6183292;23;20470;-83
2024/02/15 04:11:57;;;;;;;1.60;1.00;;;12.50;98.20;;;;;;6168387;23;20463;-82
2024/02/15 04:14:25;;;;;;;1.53;1.00;;;12.50;98.20;;;;;;6183515;23;20423;-82
2024/02/15 04:16:53;;;;;;;1.57;1.07;;;12.50;98.20;;;;;;6168961;23;20568;-82
2024/02/15 04:19:21;;;;;;;1.60;1.10;;;12.50;98.20;;;;;;6193363;23;20415;-82
2024/02/15 04:21:50;;;;;;;1.60;1.10;;;12.50;98.20;;;;;;6167968;23;20848;-82
2024/02/15 04:24:17;;;;;;;1.57;1.00;;;12.50;98.20;;;;;;6181631;23;20527;-82
2024/02/15 04:26:47;;;;;;;1.53;1.10;;;12.50;98.20;;;;;;6168039;23;20448;-82
2024/02/15 04:29:14;;;;;;;1.60;1.10;;;12.60;98.20;;;;;;6183372;23;20561;-82
2024/02/15 04:31:42;;;;;;;1.60;1.10;;;12.60;98.20;;;;;;6175138;23;20478;-82
2024/02/15 04:34:11;;;;;;;1.60;1.10;;;12.70;98.20;;;;;;6181301;23;20424;-81
2024/02/15 04:36:38;;;;;;;1.53;1.00;;;12.70;98.20;;;;;;6168338;23;20447;-81
2024/02/15 04:39:10;;;;;;;1.53;1.10;;;12.70;98.20;;;;;;6184340;23;20523;-81
2024/02/15 04:41:42;;;;;;;1.60;1.10;;;12.70;98.20;;;;;;6167950;23;20498;-82
2024/02/15 04:44:42;;;;;;;1.60;1.07;;;12.70;98.20;;;;;;6192873;23;20432;-81
2024/02/15 04:47:09;;;;;;;1.57;1.07;;;12.70;98.20;;;;;;6163793;23;20447;-83
2024/02/15 04:49:42;;;;;;;1.60;1.03;;;12.70;98.20;;;;;;6186128;23;20415;-82
2024/02/15 04:52:12;;;;;;;1.53;1.00;;;12.70;98.20;;;;;;6173642;23;20452;-82
2024/02/15 04:54:39;;;;;;;1.60;1.10;;;12.70;98.20;;;;;;6183294;23;20411;-83
2024/02/15 04:57:08;;;;;;;1.53;1.00;;;12.70;98.20;;;;;;6170321;23;20502;-82
2024/02/15 04:59:36;;;;;;;1.60;1.10;;;12.70;98.20;;;;;;6184157;23;20416;-82
2024/02/15 05:02:03;;;;;;;1.57;1.00;;;12.70;98.20;;;;;;6168724;23;21003;-82
2024/02/15 05:04:30;;;;;;;1.60;1.10;;;12.60;98.20;;;;;;6182613;23;20451;-82
2024/02/15 05:06:59;;;;;;;1.57;1.07;;;12.60;98.20;;;;;;6168915;23;20462;-83
2024/02/15 05:09:26;;;;;;;1.57;1.00;;;12.60;98.20;;;;;;6184840;23;20424;-82
2024/02/15 05:11:54;;;;;;;1.60;1.10;;;12.60;98.20;;;;;;6169414;23;20455;-83
2024/02/15 05:14:23;;;;;;;1.60;1.10;;;12.60;98.20;;;;;;6183264;23;20419;-83
2024/02/15 05:16:53;;;;;;;1.60;1.10;;;12.60;98.20;;;;;;6174200;23;20479;-82
2024/02/15 05:19:20;;;;;;;1.60;1.10;;;12.60;98.20;;;;;;6183136;23;20771;-82
2024/02/15 05:21:54;;;;;;;1.53;1.00;;;12.60;98.20;;;;;;6169806;23;20531;-80
2024/02/15 05:24:23;;;;;;;1.60;1.10;;;12.60;98.20;;;;;;6193084;23;20479;-81
2024/02/15 05:26:55;;;;;;;1.57;1.00;;;12.60;98.20;;;;;;6167113;23;20475;-81
2024/02/15 05:29:23;;;;;;;1.53;1.00;;;12.60;98.20;;;;;;6191832;23;20398;-83
2024/02/15 05:31:56;;;;;;;1.57;1.00;;;12.60;98.20;;;;;;6167357;23;20454;-84
2024/02/15 05:34:26;;;;;;;1.53;1.00;;;12.60;98.20;;;;;;6193094;23;20439;-84
2024/02/15 05:36:56;;;;;;;2.17;1.97;;;12.50;98.20;;;;;;6174653;23;20457;-85
2024/02/15 05:39:25;;;;;;;1.53;1.00;;;12.50;98.20;;;;;;6193980;23;20420;-85
2024/02/15 05:41:52;;;;;;;1.60;1.07;;;12.50;98.20;;;;;;6166370;23;20448;-85
2024/02/15 05:44:20;;;;;;;1.53;1.00;;;12.50;98.20;;;;;;6188941;23;20738;-84
2024/02/15 05:46:56;;;;;;;1.60;1.10;;;12.40;98.20;;;;;;6168418;23;20523;-85
2024/02/15 05:49:23;;;;;;;1.60;1.10;;;12.40;98.20;;;;;;6181724;23;20403;-84
2024/02/15 05:51:59;;;;;;;1.50;1.00;;;12.40;98.20;;;;;;6172517;23;20514;-84
2024/02/15 05:54:27;;;;;;;1.53;1.00;;;12.30;98.20;;;;;;6181728;23;20415;-84
2024/02/15 05:56:55;;;;;;;1.70;1.37;;;12.30;98.20;;;;;;6166009;23;21089;-85
2024/02/15 05:59:21;;;;;;;1.57;1.00;;;12.30;98.20;;;;;;6190798;23;20506;-85
2024/02/15 06:01:55;;;;;;;1.53;1.00;;;12.30;98.20;;;;;;6172322;23;20487;-84
2024/02/15 06:04:23;;;;;;;1.60;1.00;;;12.30;98.20;;;;;;6179028;23;20443;-84
2024/02/15 06:06:50;;;;;;;1.60;1.10;;;12.30;98.20;;;;;;6168175;23;21024;-83
2024/02/15 06:09:21;;;;;;;1.57;1.00;;;12.30;98.20;;;;;;6188647;23;20481;-83
2024/02/15 06:11:51;;;;;;;1.60;1.10;;;12.30;98.20;;;;;;6169616;23;20459;-83
2024/02/15 06:14:18;;;;;;;1.60;1.10;;;12.30;98.20;;;;;;6190509;23;20435;-82
2024/02/15 06:16:45;;;;;;;1.60;1.10;;;12.30;98.20;;;;;;6167817;23;21025;-83
2024/02/15 06:19:13;;;;;;;1.57;1.00;;;12.30;98.20;;;;;;6189853;23;20482;-86
2024/02/15 06:21:41;;;;;;;1.60;1.10;;;12.30;98.20;;;;;;6166282;23;20479;-83
2024/02/15 06:24:09;;;;;;;1.60;1.10;;;12.30;98.20;;;;;;6191085;23;20518;-84
2024/02/15 06:26:36;;;;;;;1.60;1.10;;;12.30;98.20;;;;;;6165679;23;20447;-85
2024/02/15 06:40:33;;;;;;;3.07;2.83;;;12.60;98.20;;;;;;6122888;23;20437;-83
2024/02/15 06:43:00;;;;;;;1.60;1.10;;;12.60;98.20;;;;;;6164033;23;20439;-82
2024/02/15 06:46:02;;;;;;;1.57;1.00;;;12.70;98.20;;;;;;6190544;23;20498;-82
2024/02/15 06:48:31;;;;;;;1.57;1.00;;;12.70;98.20;;;;;;6134102;23;20428;-82
2024/02/15 06:50:58;;;;;;;1.60;1.00;;;12.70;98.20;;;;;;6166000;23;20526;-83
2024/02/15 06:53:29;;;;;;;1.60;1.07;;;12.70;98.20;;;;;;6179674;23;20430;-83
2024/02/15 06:56:02;;;;;;;1.60;1.10;;;12.70;98.20;;;;;;6175723;23;20483;-83
2024/02/15 06:58:43;;;;;;;1.60;1.00;;;12.70;98.20;;;;;;6188457;23;20901;-83
2024/02/15 07:01:13;;;;;;;1.57;1.03;;;12.70;98.20;;;;;;6174071;23;20511;-80
2024/02/15 07:03:44;;;;;;;1.60;1.20;;;12.70;98.20;;;;;;6179609;23;20772;-81
2024/02/15 07:06:13;;;;;;;1.57;1.10;;;12.70;98.20;;;;;;6165757;23;20900;-82
2024/02/15 07:08:40;;;;;;;1.60;1.10;;;12.70;98.20;;;;;;6179183;23;20716;-82
2024/02/15 07:11:09;;;;;;;1.53;1.00;;;12.80;98.20;;;;;;6166477;23;20434;-82
2024/02/15 07:13:37;;;;;;;1.53;1.00;;;12.70;98.20;;;;;;6180474;23;20420;-82
2024/02/15 07:16:07;;;;;;;1.60;1.10;;;12.80;98.20;;;;;;6167996;23;20744;-82
2024/02/15 07:18:34;;;;;;;1.50;1.00;;;12.80;98.20;;;;;;6180597;23;20408;-81
2024/02/15 07:21:08;;;;;;;1.57;1.00;;;12.80;98.20;;;;;;6166191;23;20440;-82
2024/02/15 07:23:39;;;;;;;1.60;1.00;;;12.80;98.20;;;;;;6181428;23;20408;-81
2024/02/15 07:26:06;;;;;;;1.60;1.10;;;12.80;98.20;;;;;;6172323;23;20448;-82
2024/02/15 07:28:33;;;;;;;1.57;1.00;;;12.80;98.20;;;;;;6187674;23;20412;-81
2024/02/15 07:31:02;;;;;;;1.57;0.90;;;12.80;98.20;;;;;;6174896;23;20440;-83
2024/02/15 07:33:43;;;;;;;1.60;1.10;;;12.80;98.20;;;;;;6178959;23;20412;-86
2024/02/15 07:36:13;;;;;;;1.57;1.00;;;12.80;98.20;;;;;;6178004;23;20447;-84
2024/02/15 07:38:39;;;;;;;1.60;1.10;;;12.80;98.20;;;;;;6180818;23;20443;-83
2024/02/15 07:41:07;;;;;;;1.60;1.10;;;12.80;98.20;;;;;;6174489;23;20447;-83
2024/02/15 07:43:36;;;;;;;1.60;1.10;;;12.70;98.20;;;;;;6180600;23;20447;-86
2024/02/15 07:46:16;;;;;;;1.60;1.00;;;12.80;98.20;;;;;;6171426;23;20448;-85
2024/02/15 07:51:55;;;;;;;;;;;;;;;;;;;;;
2024/02/15 07:54:33;;;;;;;1.60;1.00;;;12.70;98.20;;;;;;6227191;23;20411;-86
2024/02/15 07:57:00;;;;;;;1.60;1.10;;;12.70;98.20;;;;;;6206034;23;20962;-85
2024/02/15 07:59:31;;;;;;;1.60;1.00;;;12.70;98.20;;;;;;6223830;23;20919;-85
2024/02/15 08:01:58;;;;;;;1.60;1.10;;;12.70;98.20;;;;;;6204220;23;20470;-84
2024/02/15 08:04:25;;;;;;;1.60;1.10;;;12.70;98.20;;;;;;6216780;23;20469;-85
2024/02/15 08:06:55;;;;;;;1.60;1.10;;;12.70;98.20;;;;;;6199558;23;20450;-85
2024/02/15 08:09:24;;;;;;;1.57;1.00;;;12.60;98.20;;;;;;6228104;23;20443;-86
2024/02/15 08:11:51;;;;;;;1.57;1.00;;;12.60;98.20;;;;;;6198710;23;20474;-86
2024/02/15 08:14:20;;;;;;;1.60;1.10;;;12.60;98.20;;;;;;6225806;23;20430;-85
2024/02/15 08:16:53;;;;;;;1.60;1.00;;;12.50;98.20;;;;;;6198152;23;20470;-87
2024/02/15 08:19:28;;;;;;;1.90;1.47;;;12.50;98.20;;;;;;6220606;23;20425;-86
2024/02/15 08:22:10;;;;;;;1.60;1.10;;;12.50;98.20;;;;;;6201522;23;20513;-86
2024/02/15 08:24:43;;;;;;;1.60;1.10;;;12.50;98.20;;;;;;6225214;23;20450;-87
2024/02/15 08:27:25;;;;;;;1.60;1.10;;;12.50;98.20;;;;;;6201454;23;20497;-86
2024/02/15 08:30:38;;;;;;;1.60;1.10;;;12.50;98.20;;;;;;6209651;23;20694;-84
2024/02/15 08:33:10;;;;;;;1.60;1.03;;;12.50;98.20;;;;;;6201967;23;20501;-86
2024/02/15 08:35:42;;;;;;;1.57;1.00;;;12.50;98.20;;;;;;6216132;23;20443;-86
2024/02/15 08:41:25;;;;;;;1.57;1.00;;;12.50;98.20;;;;;;6093296;23;21021;-87
2024/02/15 08:44:05;;;;;;;1.57;1.10;;;12.50;98.20;;;;;;6224967;23;20711;-86
2024/02/15 08:46:40;;;;;;;1.53;1.00;;;12.40;98.20;;;;;;6206935;23;20461;-85
2024/02/15 08:49:07;;;;;;;1.57;1.00;;;12.50;98.20;;;;;;6223161;23;20418;-85
2024/02/15 08:52:03;;;;;;;1.60;1.10;;;12.50;98.20;;;;;;6206603;23;20455;-84
2024/02/15 08:55:15;;;;;;;1.57;1.00;;;12.60;98.20;;;;;;6193544;23;20408;-84
2024/02/15 08:58:38;;;;;;;1.50;1.00;;;12.60;98.20;;;;;;6166583;23;21025;-85
2024/02/15 09:01:20;;;;;;;1.60;1.10;;;12.70;98.20;;;;;;6163483;23;20543;-83
2024/02/15 09:03:48;;;;;;;1.60;1.10;;;12.70;98.20;;;;;;6195161;23;20453;-82
2024/02/15 09:06:31;;;;;;;1.50;1.00;;;12.70;98.20;;;;;;6182228;23;20486;-85
2024/02/15 09:09:09;;;;;;;1.60;1.20;;;12.70;98.20;;;;;;6183701;23;20438;-84
2024/02/15 09:11:47;;;;;;;1.60;1.10;;;12.70;98.20;;;;;;6175883;23;20853;-83
2024/02/15 09:14:31;;;;;;;1.57;1.10;;;12.70;98.20;;;;;;6192957;23;20725;-83
2024/02/15 09:17:07;;;;;;;1.57;1.00;;;12.80;98.20;;;;;;6163892;23;20447;-84
2024/02/15 09:19:43;;;;;;;1.60;1.10;;;12.80;98.20;;;;;;6192603;23;20507;-84
2024/02/15 09:22:09;;;;;;;1.60;1.00;;;12.80;98.20;;;;;;6170835;23;20463;-82
2024/02/15 09:24:38;;;;;;;1.57;1.00;;;12.80;98.20;;;;;;6192775;23;20427;-82
2024/02/15 09:27:12;;;;;;;1.60;1.20;;;12.80;98.20;;;;;;6173539;23;20529;-84
2024/02/15 09:29:42;;;;;;;1.50;1.00;;;12.80;98.20;;;;;;6195492;23;20507;-82
2024/02/15 09:32:38;;;;;;;1.60;1.00;;;12.80;98.20;;;;;;6170127;23;20531;-82
2024/02/15 09:35:14;;;;;;;1.60;1.10;;;12.90;98.20;;;;;;6194706;23;20809;-83
2024/02/15 09:37:48;;;;;;;1.57;1.00;;;13.00;98.20;;;;;;6169823;23;20486;-83
2024/02/15 09:40:16;;;;;;;1.57;1.00;;;13.00;98.20;;;;;;6198978;23;20472;-85
2024/02/15 09:42:44;;;;;;;1.60;1.03;;;13.00;98.20;;;;;;6169255;23;20523;-83
2024/02/15 09:45:14;;;;;;;1.60;1.07;;;13.10;98.20;;;;;;6182575;23;20459;-80
2024/02/15 09:47:42;;;;;;;1.60;1.00;;;13.20;98.20;;;;;;6168567;23;20591;-83
2024/02/15 09:50:11;;;;;;;1.53;1.00;;;13.20;98.20;;;;;;6184660;23;20828;-83
2024/02/15 09:52:40;;;;;;;1.60;1.00;;;13.20;98.20;;;;;;6179800;23;20447;-82
2024/02/15 09:55:10;;;;;;;1.60;1.10;;;13.30;98.20;;;;;;6190303;22;20464;-82
2024/02/15 09:57:38;;;;;;;1.60;1.10;;;13.30;98.20;;;;;;6150063;23;20495;-82
2024/02/15 10:00:07;;;;;;;1.60;1.00;;;13.30;98.20;;;;;;6186049;23;20430;-82
2024/02/15 10:02:37;;;;;;;1.60;1.10;;;13.40;98.20;;;;;;6152296;23;20455;-82
2024/02/15 10:05:05;;;;;;;2.00;1.80;;;13.40;98.20;;;;;;6195635;23;20435;-82
2024/02/15 10:07:32;;;;;;;1.60;1.00;;;13.40;98.20;;;;;;6150081;23;21159;-81
2024/02/15 10:10:16;;;;;;;1.60;1.30;;;13.50;98.20;;;;;;6186699;23;20424;-82
2024/02/15 10:12:51;;;;;;;1.50;1.00;;;13.50;98.20;;;;;;6152159;23;20812;-82
2024/02/15 10:15:34;;;;;;;1.60;1.00;;;13.60;98.20;;;;;;6188995;23;20503;-83
2024/02/15 10:18:12;;;;;;;1.60;1.10;;;13.60;98.20;;;;;;6144557;23;20448;-83
2024/02/15 10:21:12;;;;;;;1.60;1.00;;;13.70;98.20;;;;;;6203446;23;20434;-82
2024/02/15 10:23:55;;;;;;;1.60;1.00;;;13.70;98.20;;;;;;6143189;23;20439;-82
2024/02/15 10:26:28;;;;;;;1.60;1.00;;;13.80;98.20;;;;;;6172393;23;20531;-82
2024/02/15 10:29:23;;;;;;;1.60;1.00;;;13.80;98.20;;;;;;6170666;23;20447;-82
2024/02/15 10:32:20;;;;;;;1.60;1.00;;;13.90;98.20;;;;;;6166853;23;20903;-83
2024/02/15 10:41:40;;;;;;;1.60;1.00;;;14.20;98.20;;;;;;6155105;23;20549;-83
2024/02/15 10:44:12;;;;;;;1.60;1.10;;;14.20;98.20;;;;;;6183068;23;20447;-84
2024/02/15 10:46:46;;;;;;;1.60;1.00;;;14.30;98.20;;;;;;6169864;23;20508;-84
2024/02/15 10:49:37;;;;;;;1.60;1.00;;;14.40;98.20;;;;;;6187874;23;20392;-86
2024/02/15 10:52:09;;;;;;;1.60;1.00;;;14.40;98.20;;;;;;6165657;23;20452;-83
2024/02/15 10:54:58;;;;;;;1.60;0.90;;;14.60;98.20;;;;;;6188406;23;20448;-84
2024/02/15 10:57:41;;;;;;;1.60;1.00;;;14.70;98.20;;;;;;6155543;23;20449;-84
2024/02/15 11:00:25;;;;;;;1.63;1.00;;;14.80;98.20;;;;;;6199208;23;20423;-83
2024/02/15 11:03:08;;;;;;;1.60;1.00;;;15.00;98.20;;;;;;6149379;23;20448;-83
2024/02/15 11:05:40;;;;;;;1.60;1.00;;;15.10;98.20;;;;;;6189748;23;20555;-85
2024/02/15 11:08:23;;;;;;;1.60;1.10;;;15.20;98.20;;;;;;6148218;23;20970;-83
2024/02/15 11:11:14;;;;;;;1.63;1.10;;;15.30;98.20;;;;;;6184391;23;20454;-84
2024/02/15 11:13:55;;;;;;;1.60;1.00;;;15.40;98.20;;;;;;6176801;23;20506;-85
2024/02/15 11:16:45;;;;;;;1.60;1.00;;;15.50;98.20;;;;;;6176719;23;20456;-83
2024/02/15 11:19:53;;;;;;;1.60;1.00;;;15.60;98.20;;;;;;6185584;23;20424;-84
2024/02/15 11:22:21;;;;;;;1.60;1.00;;;15.60;98.20;;;;;;6157408;23;20476;-84
2024/02/15 11:24:53;;;;;;;1.60;1.00;;;15.60;98.20;;;;;;6180731;23;20507;-84
2024/02/15 11:30:45;;;;;;;1.60;1.00;;;15.70;98.20;;;;;;6181709;23;20455;-84
2024/02/15 11:33:30;;;;;;;1.60;1.00;;;15.80;98.20;;;;;;6146735;23;20460;-83
2024/02/15 11:36:22;;;;;;;1.60;1.00;;;15.80;98.20;;;;;;6179271;23;20420;-84
2024/02/15 11:38:56;;;;;;;1.60;1.00;;;15.80;98.20;;;;;;6180189;23;20417;-84
2024/02/15 11:41:31;;;;;;;1.60;0.90;;;15.90;98.20;;;;;;6165524;23;20552;-85
2024/02/15 11:44:09;;;;;;;1.60;1.00;;;16.00;98.20;;;;;;6181307;23;20501;-84
2024/02/15 11:46:42;;;;;;;1.60;1.00;;;16.10;98.20;;;;;;6162553;23;20453;-83
2024/02/15 11:49:18;;;;;;;1.60;0.90;;;16.10;98.20;;;;;;6174619;23;20416;-85
2024/02/15 11:51:57;;;;;;;1.60;1.00;;;16.20;98.20;;;;;;6162243;23;20444;-84
2024/02/15 11:54:24;;;;;;;1.60;1.00;;;16.20;98.20;;;;;;6189470;23;20447;-83
2024/02/15 11:56:54;;;;;;;1.60;1.00;;;16.20;98.20;;;;;;6165199;23;20487;-85
2024/02/15 11:59:31;;;;;;;1.60;1.00;;;16.20;98.20;;;;;;6174882;23;20958;-86
2024/02/15 12:18:52;;;;;;;1.60;1.00;;;16.30;98.20;;;;;;6169456;23;21084;-84
2024/02/15 12:21:45;;;;;;;1.60;0.90;;;16.30;98.20;;;;;;6172116;23;20532;-84
2024/02/15 12:24:13;;;;;;;1.60;1.00;;;16.30;98.20;;;;;;6186756;23;20446;-84
2024/02/15 12:26:43;;;;;;;1.60;1.00;;;16.30;98.20;;;;;;6160617;23;20452;-84
2024/02/15 12:29:12;;;;;;;1.60;1.00;;;16.30;98.20;;;;;;6176084;23;20639;-83
2024/02/15 12:31:40;;;;;;;1.60;0.90;;;16.40;98.20;;;;;;6163120;23;20451;-84
2024/02/15 12:34:07;;;;;;;1.60;1.00;;;16.40;98.20;;;;;;6173263;23;20467;-84
2024/02/15 12:36:36;;;;;;;1.60;1.00;;;16.50;98.20;;;;;;6164125;23;20452;-84
2024/02/15 12:39:10;;;;;;;1.60;1.00;;;16.50;98.20;;;;;;6174542;23;20506;-84
2024/02/15 12:41:37;;;;;;;1.60;1.00;;;16.60;98.20;;;;;;6172380;23;20985;-84
2024/02/15 12:44:20;;;;;;;1.63;1.00;;;16.60;98.20;;;;;;6187657;23;20439;-82
2024/02/15 12:47:06;;;;;;;1.60;1.00;;;16.60;98.20;;;;;;6170315;23;20453;-85
2024/02/15 12:49:34;;;;;;;1.60;0.97;;;16.60;98.20;;;;;;6182344;23;20422;-82
2024/02/15 12:52:36;;;;;;;1.60;1.00;;;16.60;98.20;;;;;;6163572;23;20479;-84
2024/02/15 12:55:12;;;;;;;1.60;1.00;;;16.70;98.20;;;;;;6198481;23;20524;-84
2024/02/15 12:57:41;;;;;;;1.60;1.00;;;16.70;98.20;;;;;;6150145;23;20508;-83
2024/02/15 13:00:14;;;;;;;1.60;1.00;;;16.70;98.20;;;;;;6190466;23;20421;-85
2024/02/15 13:02:43;;;;;;;1.60;1.00;;;16.70;98.20;;;;;;6150618;23;20948;-84
2024/02/15 13:05:09;;;;;;;1.60;1.00;;;16.70;98.20;;;;;;6190503;23;20436;-83
2024/02/15 13:07:38;;;;;;;1.60;1.00;;;16.70;98.20;;;;;;6152284;23;20528;-83
2024/02/15 13:10:06;;;;;;;1.60;1.00;;;16.70;98.20;;;;;;6183264;23;20423;-84
2024/02/15 13:12:35;;;;;;;1.80;1.30;;;16.70;98.20;;;;;;6152079;23;20456;-84
2024/02/15 13:15:04;;;;;;;1.60;1.07;;;16.80;98.20;;;;;;6184759;23;20439;-81
2024/02/15 13:17:31;;;;;;;1.60;1.00;;;16.80;98.20;;;;;;6152687;23;20445;-84
2024/02/15 13:20:04;;;;;;;1.60;1.00;;;16.80;98.20;;;;;;6188497;23;20420;-81
2024/02/15 13:22:31;;;;;;;1.60;1.00;;;16.80;98.20;;;;;;6153288;23;20449;-82
2024/02/15 13:24:59;;;;;;;1.60;1.00;;;16.80;98.20;;;;;;6188540;23;20611;-82
2024/02/15 13:27:26;;;;;;;1.60;1.00;;;16.80;98.20;;;;;;6153074;23;20508;-83
2024/02/15 13:29:53;;;;;;;1.60;0.90;;;16.80;98.20;;;;;;6197175;23;20443;-83
2024/02/15 13:32:21;;;;;;;1.60;1.00;;;16.80;98.20;;;;;;6155104;23;20449;-83
2024/02/15 13:34:51;;;;;;;1.60;0.90;;;16.80;98.20;;;;;;6183628;23;20952;-83
2024/02/15 13:37:21;;;;;;;1.60;1.00;;;16.80;98.20;;;;;;6157884;23;20500;-84
2024/02/15 13:40:05;;;;;;;1.60;1.00;;;16.80;98.20;;;;;;6185292;23;20423;-83
2024/02/15 13:42:39;;;;;;;1.60;1.00;;;16.80;98.20;;;;;;6154674;23;20452;-83
2024/02/15 13:45:09;;;;;;;1.60;1.00;;;16.80;98.20;;;;;;6188066;23;20496;-83
2024/02/15 13:47:43;;;;;;;1.60;1.00;;;16.80;98.20;;;;;;6147487;23;20445;-83
2024/02/15 13:50:14;;;;;;;1.90;1.33;;;16.80;98.20;;;;;;6198018;23;20434;-83
2024/02/15 13:52:43;;;;;;;1.60;0.90;;;16.90;98.20;;;;;;6150728;23;20449;-84
2024/02/15 13:55:11;;;;;;;1.60;1.00;;;16.90;98.20;;;;;;6186437;23;20443;-83
2024/02/15 13:57:38;;;;;;;1.60;1.00;;;17.00;98.20;;;;;;6150543;23;20449;-82
2024/02/15 14:00:06;;;;;;;1.60;1.10;;;17.00;98.20;;;;;;6196390;23;20783;-82
2024/02/15 14:02:33;;;;;;;1.60;0.90;;;17.10;98.20;;;;;;6150653;23;20756;-82
2024/02/15 14:05:19;;;;;;;1.70;1.10;;;17.20;98.20;;;;;;6186736;23;20466;-83
2024/02/15 14:07:52;;;;;;;1.60;1.00;;;17.20;98.20;;;;;;6145861;23;20527;-82
2024/02/15 14:10:22;;;;;;;1.60;1.00;;;17.20;98.20;;;;;;6186631;23;20400;-82
2024/02/15 14:12:52;;;;;;;1.60;1.00;;;17.20;98.20;;;;;;6146209;23;20448;-83
2024/02/15 14:15:21;;;;;;;1.60;0.90;;;17.20;98.20;;;;;;6194755;23;20446;-82
2024/02/15 14:17:48;;;;;;;1.60;0.97;;;17.20;98.20;;;;;;6144894;23;20444;-82
2024/02/15 14:20:15;;;;;;;1.60;1.00;;;17.10;98.20;;;;;;6189284;23;20498;-83
2024/02/15 14:22:49;;;;;;;1.60;0.90;;;17.10;98.20;;;;;;6152086;23;20453;-82
2024/02/15 14:25:17;;;;;;;1.60;0.90;;;17.00;98.20;;;;;;6188565;23;20829;-83
2024/02/15 14:27:44;;;;;;;1.60;1.00;;;17.00;98.20;;;;;;6149303;23;20555;-82
2024/02/15 14:33:03;;;;;;;1.60;0.97;;;17.00;98.20;;;;;;6148924;23;20471;-85
2024/02/15 14:35:32;;;;;;;1.60;0.90;;;17.10;98.20;;;;;;6188517;23;20507;-83
2024/02/15 14:38:02;;;;;;;1.60;1.10;;;17.00;98.20;;;;;;6147079;23;20583;-83
2024/02/15 14:40:31;;;;;;;1.60;0.90;;;17.00;98.20;;;;;;6190586;23;20404;-82
2024/02/15 14:43:00;;;;;;;1.60;1.00;;;17.00;98.20;;;;;;6148404;23;20452;-82
2024/02/15 14:45:30;;;;;;;1.60;1.00;;;17.00;98.20;;;;;;6187570;23;20451;-82
2024/02/15 14:47:58;;;;;;;1.60;0.90;;;17.00;98.20;;;;;;6154924;23;20467;-82
2024/02/15 14:50:25;;;;;;;1.60;0.90;;;17.00;98.20;;;;;;6206735;23;20410;-82
2024/02/15 14:52:54;;;;;;;1.60;0.90;;;17.00;98.20;;;;;;6159561;23;20511;-84
2024/02/15 14:55:23;;;;;;;1.60;1.00;;;16.90;98.20;;;;;;6190516;23;21039;-83
2024/02/15 14:57:52;;;;;;;1.60;1.00;;;16.90;98.20;;;;;;6145861;23;20466;-84
2024/02/15 15:00:21;;;;;;;1.60;1.10;;;16.90;98.20;;;;;;6192498;23;20431;-83
2024/02/15 15:02:48;;;;;;;1.60;1.00;;;16.90;98.20;;;;;;6145826;23;21088;-84
2024/02/15 15:13:46;;;;;;;1.60;1.00;;;16.80;98.20;;;;;;6061698;23;20458;-82
2024/02/15 15:16:14;;;;;;;1.60;1.00;;;16.80;98.20;;;;;;6109492;23;20540;-83
2024/02/15 15:18:41;;;;;;;1.60;1.10;;;16.70;98.20;;;;;;6162015;23;20416;-83
2024/02/15 15:21:08;;;;;;;1.60;0.90;;;16.70;98.20;;;;;;6176335;23;20456;-82
2024/02/15 15:23:41;;;;;;;1.60;1.00;;;16.70;98.20;;;;;;6166487;23;20412;-81
2024/02/15 15:26:10;;;;;;;1.60;1.10;;;16.60;98.20;;;;;;6161807;23;20429;-82
2024/02/15 15:28:37;;;;;;;1.60;1.00;;;16.60;98.20;;;;;;6162652;23;20443;-82
2024/02/15 15:31:06;;;;;;;1.60;0.90;;;16.60;98.20;;;;;;6172048;23;20439;-83
2024/02/15 15:33:39;;;;;;;1.60;1.00;;;16.60;98.20;;;;;;6158992;23;20423;-83
2024/02/15 15:36:06;;;;;;;1.60;1.00;;;16.60;98.20;;;;;;6165144;23;20552;-82
2024/02/15 15:38:34;;;;;;;1.60;0.90;;;16.50;98.20;;;;;;6164361;23;20656;-83
2024/02/15 15:41:05;;;;;;;1.60;1.00;;;16.50;98.20;;;;;;6166573;23;20932;-83
2024/02/15 15:43:32;;;;;;;1.60;1.00;;;16.50;98.20;;;;;;6168295;23;20416;-81
2024/02/15 15:45:59;;;;;;;1.60;0.90;;;16.50;98.20;;;;;;6169004;23;20462;-82
2024/02/15 15:48:28;;;;;;;1.57;0.93;;;16.50;98.20;;;;;;6166127;23;20447;-82
2024/02/15 15:51:00;;;;;;;1.60;1.00;;;16.40;98.20;;;;;;6181547;23;20427;-81
2024/02/15 15:53:36;;;;;;;1.60;1.10;;;16.40;98.20;;;;;;6161714;23;20408;-84
2024/02/15 15:56:03;;;;;;;1.60;1.00;;;16.40;98.20;;;;;;6166431;23;20404;-82
2024/02/15 15:58:35;;;;;;;1.60;0.93;;;16.30;98.20;;;;;;6170146;23;20686;-82
2024/02/15 16:03:56;;;;;;;1.60;1.00;;;16.30;98.20;;;;;;6168575;22;20778;-82
2024/02/15 16:06:24;;;;;;;1.60;1.00;;;16.20;98.20;;;;;;6197570;23;20466;-82
2024/02/15 16:08:50;;;;;;;1.60;0.90;;;16.20;98.20;;;;;;6214116;23;20919;-82
2024/02/15 16:11:17;;;;;;;1.60;1.00;;;16.20;98.20;;;;;;6198697;23;20864;-82
2024/02/15 16:13:48;;;;;;;1.60;0.93;;;16.20;98.20;;;;;;6212669;23;20525;-82
2024/02/15 16:16:15;;;;;;;1.60;1.10;;;16.20;98.20;;;;;;6208105;23;20682;-82
2024/02/15 16:18:43;;;;;;;1.60;1.00;;;16.20;98.20;;;;;;6224192;23;20434;-82
2024/02/15 16:21:38;;;;;;;1.60;1.00;;;16.20;98.20;;;;;;6200133;23;21105;-84
2024/02/15 16:24:06;;;;;;;1.60;1.00;;;16.20;98.20;;;;;;6222372;23;20443;-83
2024/02/15 16:26:33;;;;;;;1.60;0.90;;;16.20;98.20;;;;;;6204580;23;20530;-84
2024/02/15 16:29:00;;;;;;;1.53;1.00;;;16.10;98.20;;;;;;6222445;23;20451;-82
2024/02/15 16:31:30;;;;;;;1.60;1.00;;;16.10;98.20;;;;;;6196868;23;20451;-82
2024/02/15 16:33:57;;;;;;;1.70;1.30;;;16.10;98.20;;;;;;6207769;23;20443;-82
2024/02/15 16:36:27;;;;;;;1.60;1.00;;;16.10;98.20;;;;;;6206481;23;20462;-83
2024/02/15 16:38:55;;;;;;;1.57;0.90;;;16.00;98.20;;;;;;6223997;23;20415;-84
2024/02/15 16:41:24;;;;;;;1.60;1.00;;;16.00;98.20;;;;;;6198795;23;20454;-83
2024/02/15 16:43:56;;;;;;;1.60;1.00;;;16.00;98.20;;;;;;6214894;23;20439;-84
2024/02/15 16:46:48;;;;;;;1.60;1.00;;;16.00;98.20;;;;;;6204536;23;20522;-84
2024/02/15 16:49:15;;;;;;;1.60;1.00;;;15.90;98.20;;;;;;6222962;23;20427;-83
2024/02/15 16:51:43;;;;;;;1.60;1.00;;;15.90;98.20;;;;;;6204051;23;20458;-82
2024/02/15 16:54:10;;;;;;;1.53;1.00;;;15.80;98.20;;;;;;6214536;23;20712;-84
2024/02/15 16:56:38;;;;;;;1.60;1.00;;;15.80;98.20;;;;;;6197366;23;20451;-83
2024/02/15 16:59:04;;;;;;;1.60;1.00;;;15.70;98.20;;;;;;6211807;23;20480;-78
2024/02/15 17:01:32;;;;;;;1.60;1.00;;;15.70;98.20;;;;;;6202361;23;20447;-82
2024/02/15 17:04:06;;;;;;;1.60;1.00;;;15.60;98.20;;;;;;6211405;23;20442;-83
2024/02/15 17:06:33;;;;;;;1.60;1.00;;;15.50;98.20;;;;;;6199249;23;20909;-83
2024/02/15 17:09:01;;;;;;;1.57;1.00;;;15.50;98.20;;;;;;6213554;23;20509;-83
2024/02/15 17:11:28;;;;;;;1.53;0.90;;;15.40;98.20;;;;;;6198751;23;20489;-83
2024/02/15 17:13:57;;;;;;;1.70;1.20;;;15.30;98.20;;;;;;6214956;23;20450;-83
2024/02/15 17:16:24;;;;;;;1.60;1.10;;;15.30;98.20;;;;;;6203484;23;21051;-83
2024/02/15 17:18:56;;;;;;;1.60;1.00;;;15.20;98.20;;;;;;6222088;23;20423;-86
2024/02/15 17:21:24;;;;;;;1.60;1.00;;;15.10;98.20;;;;;;6224426;23;20506;-82
2024/02/15 17:23:51;;;;;;;1.60;1.00;;;15.10;98.20;;;;;;6222117;23;20443;-83
2024/02/15 17:26:20;;;;;;;1.60;1.00;;;15.00;98.20;;;;;;6201080;23;20453;-82